Boa Tyr — LAMU — position and weather

sailwx.info

Track history (hours):
 
Tides and Currents Weather Stations Pressure Air Temp Water Temp Dewpoint Dewpoint Depression Visibility Wind Speed Wind Dir Waves Ship Positions

Boa Tyr

Last reported at 2016-Jun-30 01:05 UTC. Time now 2016-Jun-30 15:57 UTC.
Position N 66°01' E 012°38'.

Length 31 m; draft 5 m.

Type: Tug. MMSI: 258395000.

Date/timePositionNaut miles runAvg speedWind from/ knotsBaromVisibWave heightAir tempDewpointWater temp
2016-Jun-30 01:05N 66°01' E 012°38'0 0.0
2016-Jun-29 23:32N 66°01' E 012°38'0 0.0
2016-Jun-29 09:26N 66°01' E 012°38'0 0.0
2016-Jun-29 05:26N 66°01' E 012°38'0 0.0
2016-Jun-29 02:13N 66°01' E 012°38'0 0.0
2016-Jun-29 01:11N 66°01' E 012°38'  
2016-Jun-26 19:18N 66°01' E 012°38'0 0.0
2016-Jun-26 18:14N 66°01' E 012°38'0 0.0
2016-Jun-26 17:15N 66°01' E 012°38'0 0.0
2016-Jun-26 15:24N 66°01' E 012°38'0 0.0
2016-Jun-26 14:21N 66°01' E 012°38'0 0.0
2016-Jun-26 13:29N 66°01' E 012°38'  
2016-Jun-23 20:25N 66°01' E 012°38'0 0.0
2016-Jun-23 16:07N 66°01' E 012°38'0 0.0
2016-Jun-23 09:07N 66°01' E 012°38'24 0.9
2016-Jun-22 04:33N 66°24' E 012°58'9 8.6
2016-Jun-22 03:33N 66°33' E 013°01'13 0.4
2016-Jun-20 19:32N 66°45' E 013°14'12 9.2
2016-Jun-20 18:17N 66°34' E 013°04'6 8.1
2016-Jun-20 17:30N 66°28' E 012°59'10 9.4
2016-Jun-20 16:26N 66°18' E 012°56'12 9.4
2016-Jun-20 15:10N 66°07' E 012°45'  
Track history (hours):
 
Tides and Currents Weather Stations Pressure Air Temp Water Temp Dewpoint Dewpoint Depression Visibility Wind Speed Wind Dir Waves Ship Positions

Boa Tyr

Last reported at 2016-Jun-30 01:05 UTC. Time now 2016-Jun-30 15:57 UTC.
Position N 66°01' E 012°38'.

Length 31 m; draft 5 m.

Type: Tug. MMSI: 258395000.

Date/timePositionNaut miles runAvg speedWind from/ knotsBaromVisibWave heightAir tempDewpointWater temp
2016-Jun-30 01:05N 66°01' E 012°38'0 0.0
2016-Jun-29 23:32N 66°01' E 012°38'0 0.0
2016-Jun-29 09:26N 66°01' E 012°38'0 0.0
2016-Jun-29 05:26N 66°01' E 012°38'0 0.0
2016-Jun-29 02:13N 66°01' E 012°38'0 0.0
2016-Jun-29 01:11N 66°01' E 012°38'  
2016-Jun-26 19:18N 66°01' E 012°38'0 0.0
2016-Jun-26 18:14N 66°01' E 012°38'0 0.0
2016-Jun-26 17:15N 66°01' E 012°38'0 0.0
2016-Jun-26 15:24N 66°01' E 012°38'0 0.0
2016-Jun-26 14:21N 66°01' E 012°38'0 0.0
2016-Jun-26 13:29N 66°01' E 012°38'  
2016-Jun-23 20:25N 66°01' E 012°38'0 0.0
2016-Jun-23 16:07N 66°01' E 012°38'0 0.0
2016-Jun-23 09:07N 66°01' E 012°38'24 0.9
2016-Jun-22 04:33N 66°24' E 012°58'9 8.6
2016-Jun-22 03:33N 66°33' E 013°01'13 0.4
2016-Jun-20 19:32N 66°45' E 013°14'12 9.2
2016-Jun-20 18:17N 66°34' E 013°04'6 8.1
2016-Jun-20 17:30N 66°28' E 012°59'10 9.4
2016-Jun-20 16:26N 66°18' E 012°56'12 9.4
2016-Jun-20 15:10N 66°07' E 012°45'  

Dump ship's entire track history